Logo AVAMET
Benvolgut visitant, si us plau, ingressa Recuperar contrasenya

Inforatge Catarroja Ajuntament

Dades diàries. Acumulats / Últims 30 dies disponibles

Data Temperatura (°C) Humitat rel. (%) Pressió rel. (hPa) Vent (km/h) Precipitació
Mínima Mitjana Màxima Amplitud
tèrmica
Mínima Mitjana Màxima Mínima Mitjana Màxima Predom. Mitjana Ràfega
màxima
Total
(mm)
Índex-n
Mínima Mitjana Màxima Mínima Mitjana Màxima n
0 a 1
P0 max
mm 5'
Dades mensuals acumulades fins l'últim dia disponible
08/2019 21,9 23,9 27,2 27,4 27,3 31,0 41,4 19,5 19 71 88 1.009 1.015 1.021   6,0 46,7 0,0
Dades anuals acumulades fins l'últim dia disponible
2019 1,2 14,3 27,2 18,5 11,7 23,1 41,4 40,2 15 66 97 993 1.017 1.036   6,7 72,4 123,2
Últims 30 dies disponibles
20-08-2019 24,8     26,0     28,9 4,1 56 73 82 1.015 1.017 1.021 ESE 10,0 46,7 0,0
19-08-2019 25,6     27,3     30,1 4,5 65 79 87 1.012 1.014 1.016 SE 6,5 29,6 0,0
18-08-2019 23,6     27,3     30,3 6,7 67 79 86 1.010 1.012 1.014 SSE 6,3 27,8 0,0
17-08-2019 23,2     26,6     29,7 6,5 66 79 86 1.013 1.015 1.017 SSE 5,8 24,1 0,0
16-08-2019 24,2     26,8     29,8 5,6 65 75 79 1.015 1.018 1.019 SSE 8,3 29,6 0,0
15-08-2019 22,6     27,6     29,9 7,3 59 72 81 1.016 1.018 1.019 ESE 6,6 27,8 0,0
14-08-2019 22,1     26,4     30,4 8,3 55 71 82 1.016 1.018 1.020 SSE 6,1 29,6 0,0
13-08-2019 24,5     25,7     27,3 2,8 43 61 74 1.017 1.019 1.020 E 5,2 25,9 0,0
12-08-2019 24,8     26,9     30,3 5,5 42 66 86 1.012 1.015 1.019 SE 5,4 27,8 0,0
11-08-2019 26,2     28,2     31,1 4,9 64 78 87 1.011 1.013 1.016 E 5,4 25,9 0,0
10-08-2019 27,2     30,0     33,9 6,7 31 62 83 1.013 1.015 1.017 SE 5,5 27,8 0,0
09-08-2019 22,8     32,9     41,4 18,6 19 43 80 1.010 1.012 1.013 OSO 8,3 40,7 0,0
08-08-2019 24,3     29,4     35,7 11,4 30 63 87 1.010 1.012 1.013 SSE 5,6 31,5 0,0
07-08-2019 23,7     27,6     33,6 9,9 53 79 88 1.009 1.011 1.013 SE 4,3 25,9 0,0
06-08-2019 25,7     27,7     30,4 4,7 68 79 87 1.009 1.012 1.014 E 4,9 24,1 0,0
05-08-2019 23,6     26,9     29,8 6,2 65 77 85 1.012 1.014 1.016 SE 4,9 24,1 0,0
04-08-2019 22,9     26,5     30,3 7,4 53 73 84 1.013 1.014 1.015 SSE 5,6 22,6 0,0
03-08-2019 22,2     26,1     29,3 7,1 56 72 83 1.012 1.015 1.016 SE 5,1 24,1 0,0
02-08-2019 22,5     25,8     28,9 6,4 56 72 80 1.014 1.015 1.016 SSE 4,2 24,1 0,0
01-08-2019 21,9     25,3     28,3 6,4 62 74 84 1.012 1.014 1.016 SSE 5,4 27,8 0,0
31-07-2019 24,0     25,8     27,7 3,7 53 73 83 1.015 1.017 1.019 E 6,5 32,2 0,8
30-07-2019 23,8     26,7     29,1 5,3 59 72 81 1.011 1.014 1.016 ESE 6,9 32,2 0,0
29-07-2019 21,8     27,0     31,9 10,1 49 66 79 1.008 1.010 1.012 SSE 7,1 29,6 0,0
28-07-2019 22,4     25,9     28,8 6,4 35 54 77 1.008 1.010 1.011 S 8,5 37,0 0,0
27-07-2019 22,6     28,5     35,3 12,7 22 48 82 1.002 1.006 1.009 SO 12,5 56,3 0,0
26-07-2019 23,4     26,9     29,9 6,5 60 70 81 1.008 1.011 1.014 S 5,3 25,9 0,0
25-07-2019 23,4     27,8     31,5 8,1 48 61 74 1.012 1.014 1.016 SE 5,6 25,9 0,0
24-07-2019 23,1     28,2     32,8 9,7 34 56 73 1.014 1.016 1.017 SSE 4,3 20,9 0,0
23-07-2019 22,3     27,5     32,8 10,5 40 60 73 1.016 1.018 1.021 SSE 4,2 29,6 0,0
22-07-2019 23,0     27,3     31,3 8,3 44 66 86 1.020 1.021 1.023 S 4,5 20,9 0,0
Últims 13 mesos disponibles
07/2019 21,4 23,0 25,3 26,8 27,7 30,6 37,6 16,2 48 68 77 1.006 1.014 1.021 SSE 6,1 56,3 6,8
06/2019 12,9 18,3 22,8 22,7 21,4 26,7 33,7 20,8 38 66 79 1.009 1.016 1.022 SE 6,2 59,6 0,0
05/2019 9,1 14,7 20,9 18,8 18,8 23,0 32,3 23,2 49 67 82 1.005 1.016 1.025 SSE 6,7 56,3 18,0
04/2019 8,8 11,6 14,3 15,5 15,4 19,9 30,3 21,5 41 66 95 1.000 1.013 1.025 SSE 8,8 63,0 85,2
03/2019 6,1 8,3 10,6 13,5 13,3 18,4 22,6 16,5 52 63 84 1.016 1.024 1.028 SSO 5,3 38,9 13,2
02/2019 3,9 7,3 10,9 12,0 12,7 17,7 25,3 21,4 35 65 78 995 1.025 1.034 SSO 6,4 72,4 0,0
01/2019 1,2 6,3 12,6 10,9 11,7 16,6 20,7 19,5 43 60 79 1.002 1.019 1.031 OSO 6,9 62,9 0,0
12/2018 4,8 9,3 14,0 13,0 13,3 18,1 23,1 18,3 56 69 87 1.009 1.025 1.031 O 5,9 50,0 11,4
11/2018 6,7 11,6 15,6 14,7 14,8 18,6 23,8 17,1 52 73 93 1.002 1.015 1.024 O 6,2 64,8 110,4
10/2018 7,1 15,0 18,8 18,6 14,4 22,7 27,7 20,6 47 72 91 1.001 1.015 1.026 5,4 57,9 183,2
09/2018 16,6 20,6 23,3 24,2 24,7 28,0 31,1 14,5 60 77 85 1.012 1.019 1.028 4,8 40,7 177,6
08/2018 20,1 23,7 25,6 27,2 26,9 30,7 36,2 16,1 56 70 79 1.012 1.016 1.021 5,8 51,8 5,8
07/2018 21,7 23,0 25,0 26,7 27,5 30,3 35,8 14,1 41 70 79 1.010 1.015 1.020 6,0 53,7 1,2
Tots els anys disponibles
2018 2,4 14,7 25,6 18,5 8,7 22,7 36,2 33,8 40 68 93 993 1.016 1.033 S 6,8 88,8 812,8
2017 0,4 14,4 26,0 18,5 9,2 22,8 36,2 35,8 31 68 90 997 1.019 1.036 SSO 5,3 88,8 340,4
Temperatura (°C)
Humitat relativa (%)
Velocitat del vent i ràfega màxima (km/h)
Direcció del vent (°)
Pressió (hPa)
Precipitació (mm)
Nota sobre les dades: s'avisa a l'usuari de la provisionalitat i no oficialitat d'aquestes dades
Logo AVAMET blanc
Web allotjada a Sollutia
Llicència de Creative CommonsLa web d'AVAMET i els seus continguts estan subjectes a una llicència de
Reconeixement - No Comercial - Compartir igual
Properes estacions: Altea - Club Nàutic d'Altea (Soci), Ares del Maestrat (Ajuntament Soci),      - - - - -      Últimes estacions: Catadau - Urb. Lloma Molina (Inforatge), Ontinyent - El Pilar (Soci) - - -